sensor_id;sensor_type;location;lat;lon;timestamp;P1;durP1;ratioP1;P2;durP2;ratioP2
38557;SDS011;24333;42.626;23.308;2024-03-08T02:23:27;57.42;;;5.70;;
38557;SDS011;24333;42.626;23.308;2024-03-08T02:26:06;86.32;;;7.30;;
38557;SDS011;24333;42.626;23.308;2024-03-08T02:49:34;12.60;;;4.95;;
38557;SDS011;24333;42.626;23.308;2024-03-08T02:52:05;14.68;;;5.30;;
38557;SDS011;24333;42.626;23.308;2024-03-08T02:54:32;13.13;;;5.30;;
38557;SDS011;24333;42.626;23.308;2024-03-08T02:56:57;10.43;;;4.60;;
38557;SDS011;24333;42.626;23.308;2024-03-08T02:59:29;8.48;;;4.90;;
38557;SDS011;24333;42.626;23.308;2024-03-08T03:02:14;7.78;;;3.85;;
38557;SDS011;24333;42.626;23.308;2024-03-08T03:04:40;7.80;;;3.42;;
38557;SDS011;24333;42.626;23.308;2024-03-08T03:07:16;7.30;;;3.00;;
38557;SDS011;24333;42.626;23.308;2024-03-08T03:09:46;10.38;;;3.67;;
38557;SDS011;24333;42.626;23.308;2024-03-08T03:12:12;12.80;;;3.83;;
38557;SDS011;24333;42.626;23.308;2024-03-08T03:25:01;9.10;;;3.70;;
38557;SDS011;24333;42.626;23.308;2024-03-08T03:27:32;6.50;;;3.38;;
38557;SDS011;24333;42.626;23.308;2024-03-08T03:29:57;4.38;;;2.60;;
38557;SDS011;24333;42.626;23.308;2024-03-08T05:06:29;2.38;;;1.58;;
38557;SDS011;24333;42.626;23.308;2024-03-08T05:08:55;3.05;;;1.27;;
38557;SDS011;24333;42.626;23.308;2024-03-08T05:11:22;4.97;;;1.50;;
38557;SDS011;24333;42.626;23.308;2024-03-08T05:14:55;27.92;;;8.50;;
38557;SDS011;24333;42.626;23.308;2024-03-08T05:17:54;33.47;;;9.43;;
38557;SDS011;24333;42.626;23.308;2024-03-08T05:20:24;19.55;;;7.13;;
38557;SDS011;24333;42.626;23.308;2024-03-08T05:23:12;24.27;;;7.20;;
38557;SDS011;24333;42.626;23.308;2024-03-08T05:25:37;15.60;;;5.97;;
38557;SDS011;24333;42.626;23.308;2024-03-08T05:28:03;9.40;;;3.83;;
38557;SDS011;24333;42.626;23.308;2024-03-08T05:30:31;7.03;;;3.00;;
38557;SDS011;24333;42.626;23.308;2024-03-08T05:32:57;5.20;;;2.70;;
38557;SDS011;24333;42.626;23.308;2024-03-08T05:35:23;7.97;;;2.72;;
38557;SDS011;24333;42.626;23.308;2024-03-08T05:37:49;4.55;;;2.40;;
38557;SDS011;24333;42.626;23.308;2024-03-08T05:40:15;4.60;;;2.70;;
38557;SDS011;24333;42.626;23.308;2024-03-08T05:42:41;3.55;;;2.20;;
38557;SDS011;24333;42.626;23.308;2024-03-08T05:45:08;5.55;;;3.10;;
38557;SDS011;24333;42.626;23.308;2024-03-08T05:47:43;6.05;;;2.78;;
38557;SDS011;24333;42.626;23.308;2024-03-08T05:50:09;5.88;;;3.10;;
38557;SDS011;24333;42.626;23.308;2024-03-08T05:52:36;6.93;;;3.78;;
38557;SDS011;24333;42.626;23.308;2024-03-08T05:55:03;19.35;;;6.80;;
38557;SDS011;24333;42.626;23.308;2024-03-08T06:03:37;7.70;;;3.90;;
38557;SDS011;24333;42.626;23.308;2024-03-08T06:06:26;14.60;;;5.70;;
38557;SDS011;24333;42.626;23.308;2024-03-08T06:08:55;21.50;;;6.28;;
38557;SDS011;24333;42.626;23.308;2024-03-08T06:11:24;27.20;;;7.18;;
38557;SDS011;24333;42.626;23.308;2024-03-08T06:13:52;16.88;;;5.93;;
38557;SDS011;24333;42.626;23.308;2024-03-08T06:16:25;45.65;;;12.50;;
38557;SDS011;24333;42.626;23.308;2024-03-08T06:18:55;45.17;;;14.15;;
38557;SDS011;24333;42.626;23.308;2024-03-08T06:21:23;17.00;;;8.73;;
38557;SDS011;24333;42.626;23.308;2024-03-08T06:23:52;20.55;;;9.00;;
38557;SDS011;24333;42.626;23.308;2024-03-08T06:26:20;15.13;;;8.32;;
38557;SDS011;24333;42.626;23.308;2024-03-08T06:28:47;13.65;;;8.35;;
38557;SDS011;24333;42.626;23.308;2024-03-08T06:31:13;13.50;;;7.43;;
38557;SDS011;24333;42.626;23.308;2024-03-08T06:33:40;13.45;;;7.70;;
38557;SDS011;24333;42.626;23.308;2024-03-08T06:36:09;16.60;;;8.70;;
38557;SDS011;24333;42.626;23.308;2024-03-08T06:38:36;15.70;;;6.68;;
38557;SDS011;24333;42.626;23.308;2024-03-08T06:41:11;13.25;;;5.47;;
38557;SDS011;24333;42.626;23.308;2024-03-08T06:43:40;12.23;;;5.25;;
38557;SDS011;24333;42.626;23.308;2024-03-08T06:46:07;12.48;;;5.32;;
38557;SDS011;24333;42.626;23.308;2024-03-08T06:48:32;12.93;;;5.95;;
38557;SDS011;24333;42.626;23.308;2024-03-08T06:50:58;12.85;;;5.10;;
38557;SDS011;24333;42.626;23.308;2024-03-08T06:53:24;14.75;;;5.18;;
38557;SDS011;24333;42.626;23.308;2024-03-08T06:55:52;14.38;;;5.07;;
38557;SDS011;24333;42.626;23.308;2024-03-08T06:58:18;17.67;;;6.45;;
38557;SDS011;24333;42.626;23.308;2024-03-08T07:00:44;13.13;;;5.30;;
38557;SDS011;24333;42.626;23.308;2024-03-08T07:03:10;13.30;;;6.05;;
38557;SDS011;24333;42.626;23.308;2024-03-08T07:05:37;13.35;;;5.82;;
38557;SDS011;24333;42.626;23.308;2024-03-08T07:08:03;14.38;;;5.68;;
38557;SDS011;24333;42.626;23.308;2024-03-08T07:10:29;15.43;;;6.18;;
38557;SDS011;24333;42.626;23.308;2024-03-08T07:12:54;11.15;;;5.82;;
38557;SDS011;24333;42.626;23.308;2024-03-08T07:15:20;13.77;;;5.70;;
38557;SDS011;24333;42.626;23.308;2024-03-08T07:17:48;19.25;;;9.45;;
38557;SDS011;24333;42.626;23.308;2024-03-08T07:20:14;15.10;;;7.00;;
38557;SDS011;24333;42.626;23.308;2024-03-08T08:52:26;17.90;;;6.90;;
38557;SDS011;24333;42.626;23.308;2024-03-08T08:54:51;15.82;;;7.32;;
38557;SDS011;24333;42.626;23.308;2024-03-08T08:57:17;14.82;;;6.60;;
38557;SDS011;24333;42.626;23.308;2024-03-08T08:59:42;16.67;;;6.95;;
38557;SDS011;24333;42.626;23.308;2024-03-08T09:02:08;15.82;;;7.57;;
38557;SDS011;24333;42.626;23.308;2024-03-08T09:07:26;11.98;;;4.75;;
38557;SDS011;24333;42.626;23.308;2024-03-08T09:09:53;11.20;;;4.78;;
38557;SDS011;24333;42.626;23.308;2024-03-08T09:12:22;9.85;;;4.80;;
38557;SDS011;24333;42.626;23.308;2024-03-08T09:14:48;9.18;;;4.80;;
38557;SDS011;24333;42.626;23.308;2024-03-08T09:23:39;13.02;;;5.80;;
38557;SDS011;24333;42.626;23.308;2024-03-08T09:26:06;12.02;;;5.53;;
38557;SDS011;24333;42.626;23.308;2024-03-08T09:28:34;16.83;;;5.70;;
38557;SDS011;24333;42.626;23.308;2024-03-08T09:31:00;10.25;;;5.38;;
38557;SDS011;24333;42.626;23.308;2024-03-08T09:33:26;8.80;;;4.88;;
38557;SDS011;24333;42.626;23.308;2024-03-08T09:35:53;22.10;;;7.65;;
38557;SDS011;24333;42.626;23.308;2024-03-08T09:38:19;14.70;;;5.82;;
38557;SDS011;24333;42.626;23.308;2024-03-08T09:40:45;14.13;;;6.75;;
38557;SDS011;24333;42.626;23.308;2024-03-08T09:43:12;19.15;;;7.05;;
38557;SDS011;24333;42.626;23.308;2024-03-08T09:45:38;20.98;;;7.30;;
38557;SDS011;24333;42.626;23.308;2024-03-08T09:48:12;13.13;;;5.70;;
38557;SDS011;24333;42.626;23.308;2024-03-08T09:53:15;18.15;;;5.93;;
38557;SDS011;24333;42.626;23.308;2024-03-08T09:55:47;15.98;;;6.95;;
38557;SDS011;24333;42.626;23.308;2024-03-08T09:58:26;14.18;;;5.50;;
38557;SDS011;24333;42.626;23.308;2024-03-08T10:01:17;9.85;;;5.10;;
38557;SDS011;24333;42.626;23.308;2024-03-08T10:03:43;12.75;;;5.22;;
38557;SDS011;24333;42.626;23.308;2024-03-08T10:06:57;13.82;;;4.78;;
38557;SDS011;24333;42.626;23.308;2024-03-08T10:12:47;11.52;;;4.65;;
38557;SDS011;24333;42.626;23.308;2024-03-08T10:15:34;14.70;;;3.42;;
38557;SDS011;24333;42.626;23.308;2024-03-08T10:18:21;10.98;;;3.50;;
38557;SDS011;24333;42.626;23.308;2024-03-08T10:21:01;7.30;;;3.72;;
38557;SDS011;24333;42.626;23.308;2024-03-08T10:23:32;6.22;;;3.05;;
38557;SDS011;24333;42.626;23.308;2024-03-08T13:22:37;3.40;;;2.10;;
38557;SDS011;24333;42.626;23.308;2024-03-08T13:25:03;4.70;;;2.70;;
38557;SDS011;24333;42.626;23.308;2024-03-08T13:27:30;7.35;;;3.00;;
38557;SDS011;24333;42.626;23.308;2024-03-08T13:36:08;2.08;;;1.58;;
38557;SDS011;24333;42.626;23.308;2024-03-08T13:38:49;3.40;;;1.80;;
38557;SDS011;24333;42.626;23.308;2024-03-08T13:41:15;4.23;;;2.30;;
38557;SDS011;24333;42.626;23.308;2024-03-08T13:43:42;4.20;;;1.90;;
38557;SDS011;24333;42.626;23.308;2024-03-08T13:46:08;8.00;;;3.40;;
38557;SDS011;24333;42.626;23.308;2024-03-08T14:49:04;7.60;;;4.00;;
38557;SDS011;24333;42.626;23.308;2024-03-08T14:51:55;16.10;;;4.85;;
38557;SDS011;24333;42.626;23.308;2024-03-08T14:54:28;12.80;;;4.15;;
38557;SDS011;24333;42.626;23.308;2024-03-08T14:57:18;14.77;;;4.57;;
38557;SDS011;24333;42.626;23.308;2024-03-08T15:00:07;16.38;;;4.97;;
38557;SDS011;24333;42.626;23.308;2024-03-08T15:03:06;16.00;;;5.55;;
38557;SDS011;24333;42.626;23.308;2024-03-08T15:13:20;20.27;;;6.80;;
38557;SDS011;24333;42.626;23.308;2024-03-08T15:26:25;9.93;;;3.47;;
38557;SDS011;24333;42.626;23.308;2024-03-08T15:31:27;12.02;;;3.63;;
38557;SDS011;24333;42.626;23.308;2024-03-08T15:47:57;3.97;;;2.20;;
38557;SDS011;24333;42.626;23.308;2024-03-08T15:51:31;6.05;;;3.13;;
38557;SDS011;24333;42.626;23.308;2024-03-08T16:42:51;23.77;;;11.13;;
38557;SDS011;24333;42.626;23.308;2024-03-08T16:45:51;20.65;;;7.15;;
38557;SDS011;24333;42.626;23.308;2024-03-08T23:34:33;9.93;;;4.50;;
38557;SDS011;24333;42.626;23.308;2024-03-08T23:37:00;9.13;;;4.63;;
38557;SDS011;24333;42.626;23.308;2024-03-08T23:39:25;12.90;;;5.18;;
38557;SDS011;24333;42.626;23.308;2024-03-08T23:48:51;15.23;;;6.75;;
38557;SDS011;24333;42.626;23.308;2024-03-08T23:56:08;12.40;;;5.67;;
38557;SDS011;24333;42.626;23.308;2024-03-08T23:58:36;13.27;;;6.22;;
